logo
Search for airport 
image banner adimage banner adimage banner ad
image banner ad

YJUK - Tjukurla Airport

Located in Ngaanyatjarra-Giles, Australia

ICAO - YJUK, IATA -

Data provided by Airmate  

General information

Coordinates: S24°22'13" E128°44'23"
Elevation is 1510 feet MSL.
Magnetic variation is 3° East
View others Airports in Western Australia

Operational data

Special qualification required
Current time UTC:
Current local time:
Weather at : - ( 0 km )
METAR: UUDD 141621Z 11004MPS 070V150 9999 SCT043CB 23/21 Q1013 WS R32L R32L/290042 NOSIG
View NOTAMs / SUP AIP / TFR affecting this airport [VIEW]
Communications frequencies: [VIEW]

Runways:

RWY identifierQFULength (ft)Width (ft)SurfaceLDA (ft)
15150°591583DIRT
33330°591583DIRT

Airport contact information

Satellite view of YJUK